sensor_id;sensor_type;location;lat;lon;timestamp;temperature;humidity
23669;DHT22;12011;47.422;15.018;2022-12-11T00:01:08;0.50;99.90
23669;DHT22;12011;47.422;15.018;2022-12-11T00:03:43;0.60;99.90
23669;DHT22;12011;47.422;15.018;2022-12-11T00:06:21;0.60;99.90
23669;DHT22;12011;47.422;15.018;2022-12-11T00:08:57;0.60;99.90
23669;DHT22;12011;47.422;15.018;2022-12-11T00:11:30;0.60;99.90
23669;DHT22;12011;47.422;15.018;2022-12-11T00:14:02;0.60;99.90
23669;DHT22;12011;47.422;15.018;2022-12-11T00:16:36;0.60;99.90
23669;DHT22;12011;47.422;15.018;2022-12-11T00:19:08;0.60;99.90
23669;DHT22;12011;47.422;15.018;2022-12-11T00:21:43;0.70;99.90
23669;DHT22;12011;47.422;15.018;2022-12-11T00:24:16;0.70;99.90
23669;DHT22;12011;47.422;15.018;2022-12-11T00:26:52;0.80;99.90
23669;DHT22;12011;47.422;15.018;2022-12-11T00:29:22;0.80;99.90
23669;DHT22;12011;47.422;15.018;2022-12-11T00:31:53;0.70;99.90
23669;DHT22;12011;47.422;15.018;2022-12-11T00:34:26;0.70;99.90
23669;DHT22;12011;47.422;15.018;2022-12-11T00:37:06;0.70;99.90
23669;DHT22;12011;47.422;15.018;2022-12-11T00:39:39;0.60;99.90
23669;DHT22;12011;47.422;15.018;2022-12-11T00:42:11;0.50;99.90
23669;DHT22;12011;47.422;15.018;2022-12-11T00:44:49;0.50;99.90
23669;DHT22;12011;47.422;15.018;2022-12-11T00:47:20;0.50;99.90
23669;DHT22;12011;47.422;15.018;2022-12-11T00:49:55;0.50;99.90
23669;DHT22;12011;47.422;15.018;2022-12-11T00:52:29;0.70;99.90
23669;DHT22;12011;47.422;15.018;2022-12-11T00:55:09;1.00;99.90
23669;DHT22;12011;47.422;15.018;2022-12-11T00:57:47;0.90;99.90
23669;DHT22;12011;47.422;15.018;2022-12-11T01:00:21;1.00;95.80
23669;DHT22;12011;47.422;15.018;2022-12-11T01:02:51;1.10;99.90
23669;DHT22;12011;47.422;15.018;2022-12-11T01:05:22;1.00;99.90
23669;DHT22;12011;47.422;15.018;2022-12-11T01:08:01;1.00;99.90
23669;DHT22;12011;47.422;15.018;2022-12-11T01:10:34;1.00;99.60
23669;DHT22;12011;47.422;15.018;2022-12-11T01:13:05;1.10;95.60
23669;DHT22;12011;47.422;15.018;2022-12-11T01:15:42;1.10;98.40
23669;DHT22;12011;47.422;15.018;2022-12-11T01:18:14;1.00;99.90
23669;DHT22;12011;47.422;15.018;2022-12-11T01:20:44;0.80;99.90
23669;DHT22;12011;47.422;15.018;2022-12-11T01:23:17;0.90;99.90
23669;DHT22;12011;47.422;15.018;2022-12-11T01:25:51;0.90;99.90
23669;DHT22;12011;47.422;15.018;2022-12-11T01:28:23;1.00;96.10
23669;DHT22;12011;47.422;15.018;2022-12-11T01:30:53;1.00;96.00
23669;DHT22;12011;47.422;15.018;2022-12-11T01:33:29;0.90;99.90
23669;DHT22;12011;47.422;15.018;2022-12-11T01:36:07;0.90;97.60
23669;DHT22;12011;47.422;15.018;2022-12-11T01:38:42;0.90;95.80
23669;DHT22;12011;47.422;15.018;2022-12-11T01:41:18;0.90;99.90
23669;DHT22;12011;47.422;15.018;2022-12-11T01:43:59;0.80;99.90
23669;DHT22;12011;47.422;15.018;2022-12-11T01:46:35;0.80;99.90
23669;DHT22;12011;47.422;15.018;2022-12-11T01:49:11;0.80;96.20
23669;DHT22;12011;47.422;15.018;2022-12-11T01:51:51;0.80;99.90
23669;DHT22;12011;47.422;15.018;2022-12-11T01:54:29;0.90;99.90
23669;DHT22;12011;47.422;15.018;2022-12-11T01:57:06;0.80;98.90
23669;DHT22;12011;47.422;15.018;2022-12-11T01:59:45;0.80;99.90
23669;DHT22;12011;47.422;15.018;2022-12-11T02:02:25;0.70;99.90
23669;DHT22;12011;47.422;15.018;2022-12-11T02:05:06;0.00;99.90
23669;DHT22;12011;47.422;15.018;2022-12-11T02:07:47;0.60;99.90
23669;DHT22;12011;47.422;15.018;2022-12-11T02:10:38;0.60;99.90
23669;DHT22;12011;47.422;15.018;2022-12-11T02:13:30;0.60;99.90
23669;DHT22;12011;47.422;15.018;2022-12-11T02:16:17;0.60;99.90
23669;DHT22;12011;47.422;15.018;2022-12-11T02:18:59;0.60;99.90
23669;DHT22;12011;47.422;15.018;2022-12-11T02:21:40;0.60;99.90
23669;DHT22;12011;47.422;15.018;2022-12-11T02:24:36;0.50;99.90
23669;DHT22;12011;47.422;15.018;2022-12-11T02:27:29;0.50;99.90
23669;DHT22;12011;47.422;15.018;2022-12-11T02:30:12;0.50;99.80
23669;DHT22;12011;47.422;15.018;2022-12-11T02:33:14;0.50;99.90
23669;DHT22;12011;47.422;15.018;2022-12-11T02:35:49;0.50;99.00
23669;DHT22;12011;47.422;15.018;2022-12-11T02:38:29;0.50;99.90
23669;DHT22;12011;47.422;15.018;2022-12-11T02:41:11;0.50;99.90
23669;DHT22;12011;47.422;15.018;2022-12-11T02:43:44;0.50;99.90
23669;DHT22;12011;47.422;15.018;2022-12-11T02:46:22;0.50;96.70
23669;DHT22;12011;47.422;15.018;2022-12-11T02:48:58;0.50;99.90
23669;DHT22;12011;47.422;15.018;2022-12-11T02:51:39;0.50;99.90
23669;DHT22;12011;47.422;15.018;2022-12-11T02:54:18;0.50;99.90
23669;DHT22;12011;47.422;15.018;2022-12-11T02:56:55;0.50;98.80
23669;DHT22;12011;47.422;15.018;2022-12-11T02:59:44;0.50;97.60
23669;DHT22;12011;47.422;15.018;2022-12-11T03:02:22;0.30;99.90
23669;DHT22;12011;47.422;15.018;2022-12-11T03:04:59;0.40;99.90
23669;DHT22;12011;47.422;15.018;2022-12-11T03:07:34;0.40;99.90
23669;DHT22;12011;47.422;15.018;2022-12-11T03:10:13;0.30;99.90
23669;DHT22;12011;47.422;15.018;2022-12-11T03:12:49;0.30;99.90
23669;DHT22;12011;47.422;15.018;2022-12-11T03:15:34;0.40;93.90
23669;DHT22;12011;47.422;15.018;2022-12-11T03:18:30;0.50;92.40
23669;DHT22;12011;47.422;15.018;2022-12-11T03:21:17;0.50;92.20
23669;DHT22;12011;47.422;15.018;2022-12-11T03:24:02;0.60;89.10
23669;DHT22;12011;47.422;15.018;2022-12-11T03:26:40;0.60;91.80
23669;DHT22;12011;47.422;15.018;2022-12-11T03:29:20;0.60;87.50
23669;DHT22;12011;47.422;15.018;2022-12-11T03:32:03;0.60;86.20
23669;DHT22;12011;47.422;15.018;2022-12-11T03:34:45;0.70;86.90
23669;DHT22;12011;47.422;15.018;2022-12-11T03:37:27;0.50;94.50
23669;DHT22;12011;47.422;15.018;2022-12-11T03:40:08;0.60;83.50
23669;DHT22;12011;47.422;15.018;2022-12-11T03:42:45;0.60;84.20
23669;DHT22;12011;47.422;15.018;2022-12-11T03:45:22;0.50;90.30
23669;DHT22;12011;47.422;15.018;2022-12-11T03:47:58;0.50;90.90
23669;DHT22;12011;47.422;15.018;2022-12-11T03:50:34;0.40;92.80
23669;DHT22;12011;47.422;15.018;2022-12-11T03:53:08;0.50;85.00
23669;DHT22;12011;47.422;15.018;2022-12-11T03:55:44;0.50;83.40
23669;DHT22;12011;47.422;15.018;2022-12-11T03:58:15;0.60;81.30
23669;DHT22;12011;47.422;15.018;2022-12-11T04:00:46;0.60;86.00
23669;DHT22;12011;47.422;15.018;2022-12-11T04:03:26;0.50;89.20
23669;DHT22;12011;47.422;15.018;2022-12-11T04:06:03;0.50;86.40
23669;DHT22;12011;47.422;15.018;2022-12-11T04:08:35;0.40;83.10
23669;DHT22;12011;47.422;15.018;2022-12-11T04:11:06;0.30;91.50
23669;DHT22;12011;47.422;15.018;2022-12-11T04:13:48;0.30;90.20
23669;DHT22;12011;47.422;15.018;2022-12-11T04:16:32;0.20;90.00
23669;DHT22;12011;47.422;15.018;2022-12-11T04:19:02;0.20;87.30
23669;DHT22;12011;47.422;15.018;2022-12-11T04:21:49;0.30;79.30
23669;DHT22;12011;47.422;15.018;2022-12-11T04:24:34;0.50;77.20
23669;DHT22;12011;47.422;15.018;2022-12-11T04:27:08;0.40;85.70
23669;DHT22;12011;47.422;15.018;2022-12-11T04:29:37;0.30;84.00
23669;DHT22;12011;47.422;15.018;2022-12-11T04:32:08;0.30;85.10
23669;DHT22;12011;47.422;15.018;2022-12-11T04:34:41;0.30;86.70
23669;DHT22;12011;47.422;15.018;2022-12-11T04:37:21;0.30;88.20
23669;DHT22;12011;47.422;15.018;2022-12-11T04:39:57;0.30;81.90
23669;DHT22;12011;47.422;15.018;2022-12-11T04:42:36;0.30;85.40
23669;DHT22;12011;47.422;15.018;2022-12-11T04:45:07;0.30;81.00
23669;DHT22;12011;47.422;15.018;2022-12-11T04:47:41;0.30;80.80
23669;DHT22;12011;47.422;15.018;2022-12-11T04:50:15;0.20;79.40
23669;DHT22;12011;47.422;15.018;2022-12-11T04:52:53;0.00;91.20
23669;DHT22;12011;47.422;15.018;2022-12-11T04:55:25;0.10;85.20
23669;DHT22;12011;47.422;15.018;2022-12-11T04:57:57;0.20;83.60
23669;DHT22;12011;47.422;15.018;2022-12-11T05:00:36;0.20;83.70
23669;DHT22;12011;47.422;15.018;2022-12-11T05:03:10;0.10;88.10
23669;DHT22;12011;47.422;15.018;2022-12-11T05:05:46;0.10;82.00
23669;DHT22;12011;47.422;15.018;2022-12-11T05:08:20;0.10;83.10
23669;DHT22;12011;47.422;15.018;2022-12-11T05:10:57;0.20;80.20
23669;DHT22;12011;47.422;15.018;2022-12-11T05:13:32;0.10;81.50
23669;DHT22;12011;47.422;15.018;2022-12-11T05:16:05;0.10;78.80
23669;DHT22;12011;47.422;15.018;2022-12-11T05:18:40;0.00;88.90
23669;DHT22;12011;47.422;15.018;2022-12-11T05:21:16;0.00;84.30
23669;DHT22;12011;47.422;15.018;2022-12-11T05:23:53;0.30;89.70
23669;DHT22;12011;47.422;15.018;2022-12-11T05:26:27;0.00;89.80
23669;DHT22;12011;47.422;15.018;2022-12-11T05:29:00;0.10;85.70
23669;DHT22;12011;47.422;15.018;2022-12-11T05:31:32;0.00;88.00
23669;DHT22;12011;47.422;15.018;2022-12-11T05:34:12;0.00;83.60
23669;DHT22;12011;47.422;15.018;2022-12-11T05:36:41;0.20;80.60
23669;DHT22;12011;47.422;15.018;2022-12-11T05:39:14;0.10;79.60
23669;DHT22;12011;47.422;15.018;2022-12-11T05:41:43;0.40;86.00
23669;DHT22;12011;47.422;15.018;2022-12-11T05:44:13;0.10;84.60
23669;DHT22;12011;47.422;15.018;2022-12-11T05:46:42;0.10;85.70
23669;DHT22;12011;47.422;15.018;2022-12-11T05:49:12;0.10;86.50
23669;DHT22;12011;47.422;15.018;2022-12-11T05:51:41;-0.10;90.00
23669;DHT22;12011;47.422;15.018;2022-12-11T05:54:14;-0.20;89.50
23669;DHT22;12011;47.422;15.018;2022-12-11T05:56:44;-0.20;89.00
23669;DHT22;12011;47.422;15.018;2022-12-11T05:59:13;0.00;78.40
23669;DHT22;12011;47.422;15.018;2022-12-11T06:01:44;-0.20;90.40
23669;DHT22;12011;47.422;15.018;2022-12-11T06:04:14;-0.40;92.50
23669;DHT22;12011;47.422;15.018;2022-12-11T06:06:43;-0.20;81.70
23669;DHT22;12011;47.422;15.018;2022-12-11T06:09:16;-0.20;81.10
23669;DHT22;12011;47.422;15.018;2022-12-11T06:11:46;-0.20;86.40
23669;DHT22;12011;47.422;15.018;2022-12-11T06:14:16;-0.20;82.80
23669;DHT22;12011;47.422;15.018;2022-12-11T06:16:46;-0.10;82.30
23669;DHT22;12011;47.422;15.018;2022-12-11T06:19:16;0.00;80.20
23669;DHT22;12011;47.422;15.018;2022-12-11T06:21:45;0.00;77.80
23669;DHT22;12011;47.422;15.018;2022-12-11T06:24:18;0.00;80.00
23669;DHT22;12011;47.422;15.018;2022-12-11T06:26:47;0.00;75.90
23669;DHT22;12011;47.422;15.018;2022-12-11T06:29:17;0.10;71.80
23669;DHT22;12011;47.422;15.018;2022-12-11T06:31:46;0.00;79.80
23669;DHT22;12011;47.422;15.018;2022-12-11T06:34:16;-0.10;78.50
23669;DHT22;12011;47.422;15.018;2022-12-11T06:36:45;0.20;77.20
23669;DHT22;12011;47.422;15.018;2022-12-11T06:39:17;-0.10;79.00
23669;DHT22;12011;47.422;15.018;2022-12-11T06:41:47;0.10;69.90
23669;DHT22;12011;47.422;15.018;2022-12-11T06:44:16;-0.10;84.40
23669;DHT22;12011;47.422;15.018;2022-12-11T06:46:46;-0.20;81.40
23669;DHT22;12011;47.422;15.018;2022-12-11T06:49:15;-0.10;78.60
23669;DHT22;12011;47.422;15.018;2022-12-11T06:51:45;0.00;79.80
23669;DHT22;12011;47.422;15.018;2022-12-11T06:54:45;-0.20;82.20
23669;DHT22;12011;47.422;15.018;2022-12-11T06:58:18;-0.10;73.00
23669;DHT22;12011;47.422;15.018;2022-12-11T07:00:56;0.00;75.80
23669;DHT22;12011;47.422;15.018;2022-12-11T07:03:26;0.30;69.20
23669;DHT22;12011;47.422;15.018;2022-12-11T07:06:24;0.10;74.50
23669;DHT22;12011;47.422;15.018;2022-12-11T07:09:12;0.10;72.60
23669;DHT22;12011;47.422;15.018;2022-12-11T07:11:51;0.20;73.00
23669;DHT22;12011;47.422;15.018;2022-12-11T07:14:21;0.20;73.10
23669;DHT22;12011;47.422;15.018;2022-12-11T07:16:50;0.20;70.20
23669;DHT22;12011;47.422;15.018;2022-12-11T07:19:20;0.30;69.80
23669;DHT22;12011;47.422;15.018;2022-12-11T07:22:04;0.20;73.60
23669;DHT22;12011;47.422;15.018;2022-12-11T07:24:53;0.20;69.40
23669;DHT22;12011;47.422;15.018;2022-12-11T07:27:25;0.20;73.60
23669;DHT22;12011;47.422;15.018;2022-12-11T07:29:55;0.30;66.20
23669;DHT22;12011;47.422;15.018;2022-12-11T07:32:24;0.30;71.20
23669;DHT22;12011;47.422;15.018;2022-12-11T07:34:54;0.30;67.10
23669;DHT22;12011;47.422;15.018;2022-12-11T07:37:23;0.40;63.90
23669;DHT22;12011;47.422;15.018;2022-12-11T07:39:53;0.30;68.20
23669;DHT22;12011;47.422;15.018;2022-12-11T07:42:25;0.30;68.70
23669;DHT22;12011;47.422;15.018;2022-12-11T07:44:56;0.30;71.50
23669;DHT22;12011;47.422;15.018;2022-12-11T07:47:26;0.30;69.70
23669;DHT22;12011;47.422;15.018;2022-12-11T07:49:55;0.30;72.30
23669;DHT22;12011;47.422;15.018;2022-12-11T07:52:25;0.30;68.50
23669;DHT22;12011;47.422;15.018;2022-12-11T07:54:54;0.30;67.60
23669;DHT22;12011;47.422;15.018;2022-12-11T07:57:27;0.30;65.60
23669;DHT22;12011;47.422;15.018;2022-12-11T07:59:56;0.30;70.30
23669;DHT22;12011;47.422;15.018;2022-12-11T08:02:26;0.30;66.70
23669;DHT22;12011;47.422;15.018;2022-12-11T08:04:57;0.40;63.20
23669;DHT22;12011;47.422;15.018;2022-12-11T08:07:27;0.40;63.50
23669;DHT22;12011;47.422;15.018;2022-12-11T08:09:56;0.40;62.50
23669;DHT22;12011;47.422;15.018;2022-12-11T08:12:28;0.40;66.10
23669;DHT22;12011;47.422;15.018;2022-12-11T08:14:58;0.30;70.70
23669;DHT22;12011;47.422;15.018;2022-12-11T08:17:28;0.40;66.00
23669;DHT22;12011;47.422;15.018;2022-12-11T08:19:57;0.40;66.70
23669;DHT22;12011;47.422;15.018;2022-12-11T08:22:26;0.40;66.30
23669;DHT22;12011;47.422;15.018;2022-12-11T08:24:56;0.40;67.70
23669;DHT22;12011;47.422;15.018;2022-12-11T08:27:30;0.40;61.90
23669;DHT22;12011;47.422;15.018;2022-12-11T08:30:07;0.50;64.00
23669;DHT22;12011;47.422;15.018;2022-12-11T08:32:40;0.40;64.90
23669;DHT22;12011;47.422;15.018;2022-12-11T08:35:25;0.40;64.60
23669;DHT22;12011;47.422;15.018;2022-12-11T08:37:55;0.40;63.70
23669;DHT22;12011;47.422;15.018;2022-12-11T08:40:31;0.40;57.10
23669;DHT22;12011;47.422;15.018;2022-12-11T08:43:04;0.50;56.80
23669;DHT22;12011;47.422;15.018;2022-12-11T08:45:38;0.60;58.00
23669;DHT22;12011;47.422;15.018;2022-12-11T08:48:09;0.60;57.80
23669;DHT22;12011;47.422;15.018;2022-12-11T08:50:43;0.60;56.00
23669;DHT22;12011;47.422;15.018;2022-12-11T08:53:12;0.60;56.70
23669;DHT22;12011;47.422;15.018;2022-12-11T08:55:42;0.60;57.70
23669;DHT22;12011;47.422;15.018;2022-12-11T08:58:17;0.60;59.50
23669;DHT22;12011;47.422;15.018;2022-12-11T09:00:52;0.60;60.00
23669;DHT22;12011;47.422;15.018;2022-12-11T09:03:23;0.50;62.70
23669;DHT22;12011;47.422;15.018;2022-12-11T09:05:56;0.60;57.10
23669;DHT22;12011;47.422;15.018;2022-12-11T09:08:35;0.60;60.10
23669;DHT22;12011;47.422;15.018;2022-12-11T09:11:11;0.60;58.30
23669;DHT22;12011;47.422;15.018;2022-12-11T09:13:45;0.60;56.30
23669;DHT22;12011;47.422;15.018;2022-12-11T09:16:17;0.60;54.10
23669;DHT22;12011;47.422;15.018;2022-12-11T09:18:53;0.60;56.90
23669;DHT22;12011;47.422;15.018;2022-12-11T09:21:28;0.60;56.20
23669;DHT22;12011;47.422;15.018;2022-12-11T09:24:00;0.70;56.70
23669;DHT22;12011;47.422;15.018;2022-12-11T09:26:34;0.80;59.00
23669;DHT22;12011;47.422;15.018;2022-12-11T09:29:11;0.90;58.50
23669;DHT22;12011;47.422;15.018;2022-12-11T09:31:41;0.90;58.10
23669;DHT22;12011;47.422;15.018;2022-12-11T09:34:16;1.10;54.80
23669;DHT22;12011;47.422;15.018;2022-12-11T09:36:45;1.20;59.60
23669;DHT22;12011;47.422;15.018;2022-12-11T09:39:18;1.20;56.00
23669;DHT22;12011;47.422;15.018;2022-12-11T09:41:54;1.20;56.80
23669;DHT22;12011;47.422;15.018;2022-12-11T09:44:39;1.40;54.90
23669;DHT22;12011;47.422;15.018;2022-12-11T09:47:22;1.40;54.80
23669;DHT22;12011;47.422;15.018;2022-12-11T09:50:04;1.60;60.00
23669;DHT22;12011;47.422;15.018;2022-12-11T09:55:45;1.70;51.90
23669;DHT22;12011;47.422;15.018;2022-12-11T09:58:33;1.80;54.90
23669;DHT22;12011;47.422;15.018;2022-12-11T10:01:25;1.80;55.60
23669;DHT22;12011;47.422;15.018;2022-12-11T10:04:21;1.80;52.30
23669;DHT22;12011;47.422;15.018;2022-12-11T10:07:11;1.90;56.20
23669;DHT22;12011;47.422;15.018;2022-12-11T10:09:51;2.00;53.60
23669;DHT22;12011;47.422;15.018;2022-12-11T10:12:35;2.00;51.80
23669;DHT22;12011;47.422;15.018;2022-12-11T10:15:34;2.00;50.10
23669;DHT22;12011;47.422;15.018;2022-12-11T10:18:13;2.20;51.70
23669;DHT22;12011;47.422;15.018;2022-12-11T10:20:48;2.20;50.50
23669;DHT22;12011;47.422;15.018;2022-12-11T10:23:23;2.10;49.60
23669;DHT22;12011;47.422;15.018;2022-12-11T10:26:05;2.10;48.50
23669;DHT22;12011;47.422;15.018;2022-12-11T10:28:37;2.40;52.30
23669;DHT22;12011;47.422;15.018;2022-12-11T10:31:15;2.60;50.70
23669;DHT22;12011;47.422;15.018;2022-12-11T10:34:01;2.60;47.50
23669;DHT22;12011;47.422;15.018;2022-12-11T10:36:36;2.80;49.30
23669;DHT22;12011;47.422;15.018;2022-12-11T10:39:15;3.00;50.20
23669;DHT22;12011;47.422;15.018;2022-12-11T10:41:46;2.90;49.30
23669;DHT22;12011;47.422;15.018;2022-12-11T10:44:19;2.70;50.10
23669;DHT22;12011;47.422;15.018;2022-12-11T10:47:02;2.40;49.70
23669;DHT22;12011;47.422;15.018;2022-12-11T10:49:37;2.30;54.30
23669;DHT22;12011;47.422;15.018;2022-12-11T10:52:11;2.20;50.00
23669;DHT22;12011;47.422;15.018;2022-12-11T10:54:54;1.90;49.70
23669;DHT22;12011;47.422;15.018;2022-12-11T10:57:29;1.90;52.50
23669;DHT22;12011;47.422;15.018;2022-12-11T11:00:00;1.80;55.60
23669;DHT22;12011;47.422;15.018;2022-12-11T11:02:34;1.70;53.70
23669;DHT22;12011;47.422;15.018;2022-12-11T11:05:15;1.60;54.60
23669;DHT22;12011;47.422;15.018;2022-12-11T11:08:02;1.30;54.00
23669;DHT22;12011;47.422;15.018;2022-12-11T11:10:49;1.30;54.50
23669;DHT22;12011;47.422;15.018;2022-12-11T11:13:41;1.20;51.90
23669;DHT22;12011;47.422;15.018;2022-12-11T11:16:14;1.20;54.00
23669;DHT22;12011;47.422;15.018;2022-12-11T11:18:51;1.20;54.80
23669;DHT22;12011;47.422;15.018;2022-12-11T11:21:26;1.20;52.90
23669;DHT22;12011;47.422;15.018;2022-12-11T11:23:57;1.30;56.50
23669;DHT22;12011;47.422;15.018;2022-12-11T11:26:31;1.30;54.50
23669;DHT22;12011;47.422;15.018;2022-12-11T11:29:24;1.10;53.00
23669;DHT22;12011;47.422;15.018;2022-12-11T11:32:12;1.10;52.40
23669;DHT22;12011;47.422;15.018;2022-12-11T11:34:43;1.00;52.20
23669;DHT22;12011;47.422;15.018;2022-12-11T11:37:32;0.90;56.70
23669;DHT22;12011;47.422;15.018;2022-12-11T11:40:27;0.90;56.10
23669;DHT22;12011;47.422;15.018;2022-12-11T11:43:06;0.90;54.40
23669;DHT22;12011;47.422;15.018;2022-12-11T11:45:48;0.80;51.00
23669;DHT22;12011;47.422;15.018;2022-12-11T11:48:33;0.80;53.10
23669;DHT22;12011;47.422;15.018;2022-12-11T11:51:14;0.80;51.10
23669;DHT22;12011;47.422;15.018;2022-12-11T11:53:50;0.70;51.30
23669;DHT22;12011;47.422;15.018;2022-12-11T11:56:25;0.80;56.20
23669;DHT22;12011;47.422;15.018;2022-12-11T11:59:05;0.80;55.40
23669;DHT22;12011;47.422;15.018;2022-12-11T12:01:40;0.60;49.30
23669;DHT22;12011;47.422;15.018;2022-12-11T12:04:11;0.70;56.70
23669;DHT22;12011;47.422;15.018;2022-12-11T12:07:04;0.60;53.70
23669;DHT22;12011;47.422;15.018;2022-12-11T12:09:50;0.40;55.40
23669;DHT22;12011;47.422;15.018;2022-12-11T12:12:35;0.60;56.20
23669;DHT22;12011;47.422;15.018;2022-12-11T12:15:19;0.50;55.20
23669;DHT22;12011;47.422;15.018;2022-12-11T12:17:55;0.50;56.80
23669;DHT22;12011;47.422;15.018;2022-12-11T12:20:35;0.30;54.20
23669;DHT22;12011;47.422;15.018;2022-12-11T12:23:30;0.20;53.80
23669;DHT22;12011;47.422;15.018;2022-12-11T12:26:17;0.50;55.30
23669;DHT22;12011;47.422;15.018;2022-12-11T12:29:04;0.20;55.00
23669;DHT22;12011;47.422;15.018;2022-12-11T12:31:57;0.10;52.10
23669;DHT22;12011;47.422;15.018;2022-12-11T12:34:49;0.20;55.50
23669;DHT22;12011;47.422;15.018;2022-12-11T12:37:38;0.10;53.80
23669;DHT22;12011;47.422;15.018;2022-12-11T12:40:29;0.10;58.00
23669;DHT22;12011;47.422;15.018;2022-12-11T12:43:24;0.20;55.00
23669;DHT22;12011;47.422;15.018;2022-12-11T12:46:09;0.20;55.40
23669;DHT22;12011;47.422;15.018;2022-12-11T12:48:44;0.20;57.50
23669;DHT22;12011;47.422;15.018;2022-12-11T12:51:15;0.10;53.80
23669;DHT22;12011;47.422;15.018;2022-12-11T12:53:51;0.30;57.30
23669;DHT22;12011;47.422;15.018;2022-12-11T12:56:24;0.30;56.60
23669;DHT22;12011;47.422;15.018;2022-12-11T12:58:57;0.00;54.10
23669;DHT22;12011;47.422;15.018;2022-12-11T13:01:30;-0.20;58.70
23669;DHT22;12011;47.422;15.018;2022-12-11T13:04:02;-0.20;57.70
23669;DHT22;12011;47.422;15.018;2022-12-11T13:06:38;-0.10;56.00
23669;DHT22;12011;47.422;15.018;2022-12-11T13:09:14;-0.20;55.70
23669;DHT22;12011;47.422;15.018;2022-12-11T13:11:46;-0.30;56.20
23669;DHT22;12011;47.422;15.018;2022-12-11T13:14:27;-0.20;60.70
23669;DHT22;12011;47.422;15.018;2022-12-11T13:17:21;0.00;55.70
23669;DHT22;12011;47.422;15.018;2022-12-11T13:20:13;-0.20;54.40
23669;DHT22;12011;47.422;15.018;2022-12-11T13:22:54;-0.20;63.80
23669;DHT22;12011;47.422;15.018;2022-12-11T13:25:29;-0.30;60.20
23669;DHT22;12011;47.422;15.018;2022-12-11T13:28:06;-0.40;55.60
23669;DHT22;12011;47.422;15.018;2022-12-11T13:31:00;-0.30;58.80
23669;DHT22;12011;47.422;15.018;2022-12-11T13:33:40;-0.30;56.30
23669;DHT22;12011;47.422;15.018;2022-12-11T13:36:28;-0.30;55.10
23669;DHT22;12011;47.422;15.018;2022-12-11T13:39:02;-0.30;59.20
23669;DHT22;12011;47.422;15.018;2022-12-11T13:41:36;-0.20;58.50
23669;DHT22;12011;47.422;15.018;2022-12-11T13:44:11;-0.30;58.30
23669;DHT22;12011;47.422;15.018;2022-12-11T13:46:47;-0.30;57.20
23669;DHT22;12011;47.422;15.018;2022-12-11T13:49:22;-0.30;56.40
23669;DHT22;12011;47.422;15.018;2022-12-11T13:51:55;-0.30;56.20
23669;DHT22;12011;47.422;15.018;2022-12-11T13:54:29;-0.30;58.10
23669;DHT22;12011;47.422;15.018;2022-12-11T13:57:03;-0.40;58.90
23669;DHT22;12011;47.422;15.018;2022-12-11T14:00:30;-0.40;61.10
23669;DHT22;12011;47.422;15.018;2022-12-11T14:03:05;-0.50;57.90
23669;DHT22;12011;47.422;15.018;2022-12-11T14:05:35;-0.50;60.70
23669;DHT22;12011;47.422;15.018;2022-12-11T14:08:07;-0.60;64.30
23669;DHT22;12011;47.422;15.018;2022-12-11T14:10:39;-0.60;61.60
23669;DHT22;12011;47.422;15.018;2022-12-11T14:13:19;-0.70;63.60
23669;DHT22;12011;47.422;15.018;2022-12-11T14:15:52;-0.80;68.70
23669;DHT22;12011;47.422;15.018;2022-12-11T14:18:29;-0.80;68.30
23669;DHT22;12011;47.422;15.018;2022-12-11T14:21:03;-0.80;65.90
23669;DHT22;12011;47.422;15.018;2022-12-11T14:23:36;-0.80;65.40
23669;DHT22;12011;47.422;15.018;2022-12-11T14:26:20;-0.90;63.70
23669;DHT22;12011;47.422;15.018;2022-12-11T14:28:54;-0.30;67.00
23669;DHT22;12011;47.422;15.018;2022-12-11T14:31:30;-1.40;71.30
23669;DHT22;12011;47.422;15.018;2022-12-11T14:34:12;-0.90;66.80
23669;DHT22;12011;47.422;15.018;2022-12-11T14:36:46;-1.10;68.00
23669;DHT22;12011;47.422;15.018;2022-12-11T14:39:21;-0.50;69.40
23669;DHT22;12011;47.422;15.018;2022-12-11T14:41:58;-1.10;68.30
23669;DHT22;12011;47.422;15.018;2022-12-11T14:44:35;-1.20;67.60
23669;DHT22;12011;47.422;15.018;2022-12-11T14:47:15;-0.60;72.50
23669;DHT22;12011;47.422;15.018;2022-12-11T14:49:56;-1.20;66.60
23669;DHT22;12011;47.422;15.018;2022-12-11T14:52:32;-1.30;73.30
23669;DHT22;12011;47.422;15.018;2022-12-11T14:55:09;-1.30;65.20
23669;DHT22;12011;47.422;15.018;2022-12-11T14:57:47;-1.30;69.70
23669;DHT22;12011;47.422;15.018;2022-12-11T15:00:23;-1.30;71.60
23669;DHT22;12011;47.422;15.018;2022-12-11T15:03:00;-1.30;65.70
23669;DHT22;12011;47.422;15.018;2022-12-11T15:05:33;-1.20;63.40
23669;DHT22;12011;47.422;15.018;2022-12-11T15:08:18;-1.10;65.10
23669;DHT22;12011;47.422;15.018;2022-12-11T15:11:01;-0.60;62.80
23669;DHT22;12011;47.422;15.018;2022-12-11T15:13:36;-1.30;76.20
23669;DHT22;12011;47.422;15.018;2022-12-11T15:16:08;-0.90;72.10
23669;DHT22;12011;47.422;15.018;2022-12-11T15:18:42;-1.30;73.90
23669;DHT22;12011;47.422;15.018;2022-12-11T15:21:15;-1.30;72.00
23669;DHT22;12011;47.422;15.018;2022-12-11T15:23:51;-1.30;70.80
23669;DHT22;12011;47.422;15.018;2022-12-11T15:26:33;-1.30;65.70
23669;DHT22;12011;47.422;15.018;2022-12-11T15:29:23;-1.40;70.50
23669;DHT22;12011;47.422;15.018;2022-12-11T15:32:03;-1.40;68.20
23669;DHT22;12011;47.422;15.018;2022-12-11T15:34:47;-1.40;70.50
23669;DHT22;12011;47.422;15.018;2022-12-11T15:37:22;-1.50;72.70
23669;DHT22;12011;47.422;15.018;2022-12-11T15:39:55;-1.50;76.90
23669;DHT22;12011;47.422;15.018;2022-12-11T15:42:30;-1.50;71.30
23669;DHT22;12011;47.422;15.018;2022-12-11T15:45:01;-1.50;72.10
23669;DHT22;12011;47.422;15.018;2022-12-11T15:47:36;-1.50;70.90
23669;DHT22;12011;47.422;15.018;2022-12-11T16:02:14;-1.50;70.80
23669;DHT22;12011;47.422;15.018;2022-12-11T16:04:44;-1.50;69.10
23669;DHT22;12011;47.422;15.018;2022-12-11T16:07:16;-0.60;65.60
23669;DHT22;12011;47.422;15.018;2022-12-11T16:09:48;-0.50;70.00
23669;DHT22;12011;47.422;15.018;2022-12-11T16:12:17;-1.50;69.20
23669;DHT22;12011;47.422;15.018;2022-12-11T16:14:47;-1.50;70.20
23669;DHT22;12011;47.422;15.018;2022-12-11T16:17:19;-1.40;71.70
23669;DHT22;12011;47.422;15.018;2022-12-11T16:19:49;-1.60;68.60
23669;DHT22;12011;47.422;15.018;2022-12-11T16:22:21;-1.50;72.40
23669;DHT22;12011;47.422;15.018;2022-12-11T16:24:52;-1.60;72.00
23669;DHT22;12011;47.422;15.018;2022-12-11T16:27:22;-1.60;69.80
23669;DHT22;12011;47.422;15.018;2022-12-11T16:29:53;-1.70;73.30
23669;DHT22;12011;47.422;15.018;2022-12-11T16:32:25;-1.70;78.00
23669;DHT22;12011;47.422;15.018;2022-12-11T16:34:57;-1.80;79.50
23669;DHT22;12011;47.422;15.018;2022-12-11T16:37:27;-0.70;76.90
23669;DHT22;12011;47.422;15.018;2022-12-11T16:39:57;-1.80;75.20
23669;DHT22;12011;47.422;15.018;2022-12-11T16:42:28;-1.90;74.80